PAYA/YAK METAR and TAF weather

Enter ICAO airport designator
Station Type Date Time Source
PAYA METAR 2019/02/20 07:53 UTC NOAA

PAYA 200753Z AUTO 00000KT 10SM CLR M02/M02 A3000 RMK AO2 SLP157 I1000 T10171022 TSNO


Station Type Date Time Source
PAYA Decoded METAR 2019/02/20 07:53 UTC NOAA

YAKUTAT AIRPORT, AK, United States (PAYA) 59-30N 139-40W 9M
Feb 20, 2019 - 02:53 AM EST / 2019.02.20 0753 UTC
Wind: Calm:0
Visibility: 10 mile(s):0
Sky conditions: clear
Temperature: 28.9 F (-1.7 C)
Dew Point: 28.0 F (-2.2 C)
Relative Humidity: 96%
Pressure (altimeter): 30 in. Hg (1015 hPa)
ob: PAYA 200753Z AUTO 00000KT 10SM CLR M02/M02 A3000 RMK AO2 SLP157 I1000 T10171022 TSNO
cycle: 8

Station Type Date Time Source
PAYA TAF 2019/02/20 06:33 UTC NOAA

TAF PAYA 200531Z 2006/2106 VRB03KT 6SM BCFG SCT002
TEMPO 2006/2010 1/4SM FZFG BKN002
FM201000 00000KT 1/4SM FZFG VV002
TEMPO 2010/2014 6SM MIFG SCT002
FM201800 06006KT P6SM BKN200
FM202300 06006KT P6SM SCT040 BKN060 OVC100
AMD LTD TO CLD VIS AND WIND


Example: see airport list